sensor_id;sensor_type;location;lat;lon;timestamp;temperature;humidity
33815;DHT22;20121;51.910;8.406;2023-06-01T00:00:30;13.20;99.90
33815;DHT22;20121;51.910;8.406;2023-06-01T00:02:56;13.10;99.90
33815;DHT22;20121;51.910;8.406;2023-06-01T00:05:21;13.10;99.90
33815;DHT22;20121;51.910;8.406;2023-06-01T00:07:47;13.00;99.90
33815;DHT22;20121;51.910;8.406;2023-06-01T00:10:13;12.90;99.90
33815;DHT22;20121;51.910;8.406;2023-06-01T00:12:39;12.80;99.90
33815;DHT22;20121;51.910;8.406;2023-06-01T00:15:05;12.80;99.90
33815;DHT22;20121;51.910;8.406;2023-06-01T00:17:30;12.70;99.90
33815;DHT22;20121;51.910;8.406;2023-06-01T00:19:57;12.70;99.90
33815;DHT22;20121;51.910;8.406;2023-06-01T00:22:22;12.60;99.90
33815;DHT22;20121;51.910;8.406;2023-06-01T00:24:50;12.50;99.90
33815;DHT22;20121;51.910;8.406;2023-06-01T00:27:15;12.40;99.90
33815;DHT22;20121;51.910;8.406;2023-06-01T00:29:41;12.40;99.90
33815;DHT22;20121;51.910;8.406;2023-06-01T00:32:07;12.30;99.90
33815;DHT22;20121;51.910;8.406;2023-06-01T00:34:32;12.20;99.90
33815;DHT22;20121;51.910;8.406;2023-06-01T00:36:58;12.10;99.90
33815;DHT22;20121;51.910;8.406;2023-06-01T00:39:24;12.10;99.90
33815;DHT22;20121;51.910;8.406;2023-06-01T00:41:49;12.00;99.90
33815;DHT22;20121;51.910;8.406;2023-06-01T00:44:15;11.90;99.90
33815;DHT22;20121;51.910;8.406;2023-06-01T00:46:40;11.90;99.90
33815;DHT22;20121;51.910;8.406;2023-06-01T00:49:07;11.80;99.90
33815;DHT22;20121;51.910;8.406;2023-06-01T00:51:33;11.70;99.90
33815;DHT22;20121;51.910;8.406;2023-06-01T00:54:00;11.70;99.90
33815;DHT22;20121;51.910;8.406;2023-06-01T00:56:25;11.60;99.90
33815;DHT22;20121;51.910;8.406;2023-06-01T00:58:52;11.60;99.90
33815;DHT22;20121;51.910;8.406;2023-06-01T01:01:18;11.60;99.90
33815;DHT22;20121;51.910;8.406;2023-06-01T01:03:49;11.60;99.90
33815;DHT22;20121;51.910;8.406;2023-06-01T01:09:35;11.60;99.90
33815;DHT22;20121;51.910;8.406;2023-06-01T01:12:14;11.50;99.90
33815;DHT22;20121;51.910;8.406;2023-06-01T01:14:56;11.50;99.90
33815;DHT22;20121;51.910;8.406;2023-06-01T01:17:36;11.50;99.90
33815;DHT22;20121;51.910;8.406;2023-06-01T01:20:10;11.50;99.90
33815;DHT22;20121;51.910;8.406;2023-06-01T01:28:31;11.40;99.90
33815;DHT22;20121;51.910;8.406;2023-06-01T01:30:59;11.40;99.90
33815;DHT22;20121;51.910;8.406;2023-06-01T01:33:27;11.60;99.90
33815;DHT22;20121;51.910;8.406;2023-06-01T01:35:53;11.30;99.90
33815;DHT22;20121;51.910;8.406;2023-06-01T01:38:19;11.30;99.90
33815;DHT22;20121;51.910;8.406;2023-06-01T01:40:44;11.30;99.90
33815;DHT22;20121;51.910;8.406;2023-06-01T01:43:10;11.30;99.90
33815;DHT22;20121;51.910;8.406;2023-06-01T01:45:36;11.30;99.90
33815;DHT22;20121;51.910;8.406;2023-06-01T01:48:14;11.20;99.90
33815;DHT22;20121;51.910;8.406;2023-06-01T01:50:52;11.30;99.90
33815;DHT22;20121;51.910;8.406;2023-06-01T01:53:20;11.20;99.90
33815;DHT22;20121;51.910;8.406;2023-06-01T01:55:49;11.20;99.90
33815;DHT22;20121;51.910;8.406;2023-06-01T01:58:15;11.10;99.90
33815;DHT22;20121;51.910;8.406;2023-06-01T02:00:42;11.10;99.90
33815;DHT22;20121;51.910;8.406;2023-06-01T02:03:15;11.00;99.90
33815;DHT22;20121;51.910;8.406;2023-06-01T02:05:42;11.00;99.90
33815;DHT22;20121;51.910;8.406;2023-06-01T02:08:08;11.00;99.90
33815;DHT22;20121;51.910;8.406;2023-06-01T02:10:33;11.00;99.90
33815;DHT22;20121;51.910;8.406;2023-06-01T02:12:59;11.00;99.90
33815;DHT22;20121;51.910;8.406;2023-06-01T02:15:25;11.00;99.90
33815;DHT22;20121;51.910;8.406;2023-06-01T02:17:50;11.00;99.90
33815;DHT22;20121;51.910;8.406;2023-06-01T02:20:17;11.00;99.90
33815;DHT22;20121;51.910;8.406;2023-06-01T02:22:42;11.00;99.90
33815;DHT22;20121;51.910;8.406;2023-06-01T02:25:08;10.90;99.90
33815;DHT22;20121;51.910;8.406;2023-06-01T02:27:34;11.00;99.90
33815;DHT22;20121;51.910;8.406;2023-06-01T02:30:00;11.00;99.90
33815;DHT22;20121;51.910;8.406;2023-06-01T02:32:25;10.90;99.90
33815;DHT22;20121;51.910;8.406;2023-06-01T02:34:52;10.90;99.90
33815;DHT22;20121;51.910;8.406;2023-06-01T02:37:17;10.90;99.90
33815;DHT22;20121;51.910;8.406;2023-06-01T02:39:43;10.90;99.90
33815;DHT22;20121;51.910;8.406;2023-06-01T02:42:08;10.90;99.90
33815;DHT22;20121;51.910;8.406;2023-06-01T02:44:34;11.00;99.90
33815;DHT22;20121;51.910;8.406;2023-06-01T02:47:00;10.90;99.90
33815;DHT22;20121;51.910;8.406;2023-06-01T02:49:25;10.90;99.90
33815;DHT22;20121;51.910;8.406;2023-06-01T02:51:51;10.90;99.90
33815;DHT22;20121;51.910;8.406;2023-06-01T02:54:16;10.90;99.90
33815;DHT22;20121;51.910;8.406;2023-06-01T02:56:42;11.00;99.90
33815;DHT22;20121;51.910;8.406;2023-06-01T02:59:08;10.90;99.90
33815;DHT22;20121;51.910;8.406;2023-06-01T03:01:33;10.90;99.90
33815;DHT22;20121;51.910;8.406;2023-06-01T03:04:02;10.90;99.90
33815;DHT22;20121;51.910;8.406;2023-06-01T03:06:30;10.90;99.90
33815;DHT22;20121;51.910;8.406;2023-06-01T03:09:02;11.00;99.90
33815;DHT22;20121;51.910;8.406;2023-06-01T03:11:27;10.90;99.90
33815;DHT22;20121;51.910;8.406;2023-06-01T03:13:53;10.90;99.90
33815;DHT22;20121;51.910;8.406;2023-06-01T03:16:19;11.00;99.90
33815;DHT22;20121;51.910;8.406;2023-06-01T03:18:44;10.90;99.90
33815;DHT22;20121;51.910;8.406;2023-06-01T03:21:10;10.90;99.90
33815;DHT22;20121;51.910;8.406;2023-06-01T03:23:36;11.20;99.90
33815;DHT22;20121;51.910;8.406;2023-06-01T03:26:02;10.90;99.90
33815;DHT22;20121;51.910;8.406;2023-06-01T03:28:29;10.90;99.90
33815;DHT22;20121;51.910;8.406;2023-06-01T03:30:55;10.90;99.90
33815;DHT22;20121;51.910;8.406;2023-06-01T03:33:21;10.80;99.90
33815;DHT22;20121;51.910;8.406;2023-06-01T03:35:47;10.90;99.90
33815;DHT22;20121;51.910;8.406;2023-06-01T03:38:15;10.90;99.90
33815;DHT22;20121;51.910;8.406;2023-06-01T03:40:40;10.80;99.90
33815;DHT22;20121;51.910;8.406;2023-06-01T03:43:06;10.80;99.90
33815;DHT22;20121;51.910;8.406;2023-06-01T03:45:32;10.80;99.90
33815;DHT22;20121;51.910;8.406;2023-06-01T03:47:57;10.90;99.90
33815;DHT22;20121;51.910;8.406;2023-06-01T03:50:23;10.90;99.90
33815;DHT22;20121;51.910;8.406;2023-06-01T03:52:49;10.90;99.90
33815;DHT22;20121;51.910;8.406;2023-06-01T03:55:14;10.90;99.90
33815;DHT22;20121;51.910;8.406;2023-06-01T03:57:40;10.90;99.90
33815;DHT22;20121;51.910;8.406;2023-06-01T04:00:07;10.90;99.90
33815;DHT22;20121;51.910;8.406;2023-06-01T04:03:03;10.90;99.90
33815;DHT22;20121;51.910;8.406;2023-06-01T04:05:32;10.90;99.90
33815;DHT22;20121;51.910;8.406;2023-06-01T04:07:58;10.90;99.90
33815;DHT22;20121;51.910;8.406;2023-06-01T04:10:24;10.90;99.90
33815;DHT22;20121;51.910;8.406;2023-06-01T04:12:50;10.90;99.90
33815;DHT22;20121;51.910;8.406;2023-06-01T04:15:16;10.90;99.90
33815;DHT22;20121;51.910;8.406;2023-06-01T04:17:43;10.80;99.90
33815;DHT22;20121;51.910;8.406;2023-06-01T04:20:14;10.80;99.90
33815;DHT22;20121;51.910;8.406;2023-06-01T04:22:41;10.60;99.90
33815;DHT22;20121;51.910;8.406;2023-06-01T04:25:09;10.90;99.90
33815;DHT22;20121;51.910;8.406;2023-06-01T04:27:35;10.90;99.90
33815;DHT22;20121;51.910;8.406;2023-06-01T04:30:04;10.90;99.90
33815;DHT22;20121;51.910;8.406;2023-06-01T04:32:36;10.90;99.90
33815;DHT22;20121;51.910;8.406;2023-06-01T04:35:04;10.90;99.90
33815;DHT22;20121;51.910;8.406;2023-06-01T04:37:36;10.90;99.90
33815;DHT22;20121;51.910;8.406;2023-06-01T04:40:05;10.90;99.90
33815;DHT22;20121;51.910;8.406;2023-06-01T04:42:42;10.90;99.90
33815;DHT22;20121;51.910;8.406;2023-06-01T04:45:11;10.90;99.90
33815;DHT22;20121;51.910;8.406;2023-06-01T04:47:39;10.90;99.90
33815;DHT22;20121;51.910;8.406;2023-06-01T04:50:09;10.90;99.90
33815;DHT22;20121;51.910;8.406;2023-06-01T04:52:44;10.90;99.90
33815;DHT22;20121;51.910;8.406;2023-06-01T04:55:10;10.90;99.90
33815;DHT22;20121;51.910;8.406;2023-06-01T04:57:38;10.90;99.90
33815;DHT22;20121;51.910;8.406;2023-06-01T05:00:06;10.90;99.90
33815;DHT22;20121;51.910;8.406;2023-06-01T05:02:39;11.00;99.90
33815;DHT22;20121;51.910;8.406;2023-06-01T05:05:07;11.00;99.90
33815;DHT22;20121;51.910;8.406;2023-06-01T05:07:33;11.00;99.90
33815;DHT22;20121;51.910;8.406;2023-06-01T05:09:59;11.00;99.90
33815;DHT22;20121;51.910;8.406;2023-06-01T05:12:30;11.10;99.90
33815;DHT22;20121;51.910;8.406;2023-06-01T05:14:55;11.10;99.90
33815;DHT22;20121;51.910;8.406;2023-06-01T05:17:21;11.10;99.90
33815;DHT22;20121;51.910;8.406;2023-06-01T05:19:47;11.10;99.90
33815;DHT22;20121;51.910;8.406;2023-06-01T05:22:13;11.20;99.90
33815;DHT22;20121;51.910;8.406;2023-06-01T05:24:38;11.20;99.90
33815;DHT22;20121;51.910;8.406;2023-06-01T05:27:04;11.20;99.90
33815;DHT22;20121;51.910;8.406;2023-06-01T05:29:30;11.20;99.90
33815;DHT22;20121;51.910;8.406;2023-06-01T05:31:56;11.20;99.90
33815;DHT22;20121;51.910;8.406;2023-06-01T05:34:22;11.20;99.90
33815;DHT22;20121;51.910;8.406;2023-06-01T05:36:48;11.30;99.90
33815;DHT22;20121;51.910;8.406;2023-06-01T05:39:15;11.30;99.90
33815;DHT22;20121;51.910;8.406;2023-06-01T05:41:41;11.30;99.90
33815;DHT22;20121;51.910;8.406;2023-06-01T05:44:06;11.30;99.90
33815;DHT22;20121;51.910;8.406;2023-06-01T05:46:33;11.30;99.90
33815;DHT22;20121;51.910;8.406;2023-06-01T05:48:58;11.40;99.90
33815;DHT22;20121;51.910;8.406;2023-06-01T05:51:24;11.40;99.90
33815;DHT22;20121;51.910;8.406;2023-06-01T05:53:50;11.40;99.90
33815;DHT22;20121;51.910;8.406;2023-06-01T05:56:16;11.50;99.90
33815;DHT22;20121;51.910;8.406;2023-06-01T05:58:42;11.50;99.90
33815;DHT22;20121;51.910;8.406;2023-06-01T06:01:08;11.50;99.90
33815;DHT22;20121;51.910;8.406;2023-06-01T06:03:35;12.10;99.90
33815;DHT22;20121;51.910;8.406;2023-06-01T06:06:01;11.60;99.90
33815;DHT22;20121;51.910;8.406;2023-06-01T06:08:27;11.60;99.90
33815;DHT22;20121;51.910;8.406;2023-06-01T06:10:53;11.60;99.90
33815;DHT22;20121;51.910;8.406;2023-06-01T06:13:19;11.70;99.90
33815;DHT22;20121;51.910;8.406;2023-06-01T06:15:44;11.70;99.90
33815;DHT22;20121;51.910;8.406;2023-06-01T06:18:10;11.70;99.90
33815;DHT22;20121;51.910;8.406;2023-06-01T06:20:36;11.70;99.90
33815;DHT22;20121;51.910;8.406;2023-06-01T06:23:01;11.70;99.90
33815;DHT22;20121;51.910;8.406;2023-06-01T06:25:27;11.70;99.90
33815;DHT22;20121;51.910;8.406;2023-06-01T06:27:52;11.70;99.90
33815;DHT22;20121;51.910;8.406;2023-06-01T06:30:18;11.70;99.90
33815;DHT22;20121;51.910;8.406;2023-06-01T06:32:44;11.70;99.90
33815;DHT22;20121;51.910;8.406;2023-06-01T06:35:10;11.70;99.90
33815;DHT22;20121;51.910;8.406;2023-06-01T06:37:40;11.80;99.90
33815;DHT22;20121;51.910;8.406;2023-06-01T06:40:06;11.80;99.90
33815;DHT22;20121;51.910;8.406;2023-06-01T06:42:32;11.80;99.90
33815;DHT22;20121;51.910;8.406;2023-06-01T06:44:59;11.80;99.90
33815;DHT22;20121;51.910;8.406;2023-06-01T06:47:24;11.90;99.90
33815;DHT22;20121;51.910;8.406;2023-06-01T06:49:51;11.90;99.90
33815;DHT22;20121;51.910;8.406;2023-06-01T06:52:17;11.90;99.90
33815;DHT22;20121;51.910;8.406;2023-06-01T06:54:43;11.90;99.90
33815;DHT22;20121;51.910;8.406;2023-06-01T06:57:09;12.00;99.90
33815;DHT22;20121;51.910;8.406;2023-06-01T06:59:35;12.10;99.90
33815;DHT22;20121;51.910;8.406;2023-06-01T07:02:01;12.20;99.90
33815;DHT22;20121;51.910;8.406;2023-06-01T07:04:30;12.20;99.90
33815;DHT22;20121;51.910;8.406;2023-06-01T07:06:56;12.90;99.90
33815;DHT22;20121;51.910;8.406;2023-06-01T07:09:21;12.10;99.90
33815;DHT22;20121;51.910;8.406;2023-06-01T07:11:47;12.20;99.90
33815;DHT22;20121;51.910;8.406;2023-06-01T07:14:14;12.20;99.90
33815;DHT22;20121;51.910;8.406;2023-06-01T07:16:40;12.20;99.90
33815;DHT22;20121;51.910;8.406;2023-06-01T07:19:06;12.20;99.90
33815;DHT22;20121;51.910;8.406;2023-06-01T07:21:32;12.30;99.90
33815;DHT22;20121;51.910;8.406;2023-06-01T07:23:58;12.40;99.90
33815;DHT22;20121;51.910;8.406;2023-06-01T07:26:23;12.40;99.90
33815;DHT22;20121;51.910;8.406;2023-06-01T07:28:51;12.50;99.90
33815;DHT22;20121;51.910;8.406;2023-06-01T07:31:19;12.60;99.90
33815;DHT22;20121;51.910;8.406;2023-06-01T07:33:45;12.60;99.90
33815;DHT22;20121;51.910;8.406;2023-06-01T07:36:12;12.70;99.90
33815;DHT22;20121;51.910;8.406;2023-06-01T07:38:37;12.80;99.90
33815;DHT22;20121;51.910;8.406;2023-06-01T07:41:03;12.80;99.90
33815;DHT22;20121;51.910;8.406;2023-06-01T07:43:28;12.80;99.90
33815;DHT22;20121;51.910;8.406;2023-06-01T07:45:55;13.00;99.90
33815;DHT22;20121;51.910;8.406;2023-06-01T07:48:21;13.00;99.90
33815;DHT22;20121;51.910;8.406;2023-06-01T07:50:46;13.00;99.90
33815;DHT22;20121;51.910;8.406;2023-06-01T07:53:12;13.00;99.90
33815;DHT22;20121;51.910;8.406;2023-06-01T07:55:38;13.00;99.90
33815;DHT22;20121;51.910;8.406;2023-06-01T07:58:04;12.90;99.90
33815;DHT22;20121;51.910;8.406;2023-06-01T08:00:30;13.00;99.90
33815;DHT22;20121;51.910;8.406;2023-06-01T08:02:56;13.00;99.90
33815;DHT22;20121;51.910;8.406;2023-06-01T08:05:24;13.00;99.90
33815;DHT22;20121;51.910;8.406;2023-06-01T08:07:50;13.00;99.90
33815;DHT22;20121;51.910;8.406;2023-06-01T08:10:15;13.00;99.90
33815;DHT22;20121;51.910;8.406;2023-06-01T08:12:41;13.00;99.90
33815;DHT22;20121;51.910;8.406;2023-06-01T08:15:10;13.00;99.90
33815;DHT22;20121;51.910;8.406;2023-06-01T08:17:37;13.00;99.90
33815;DHT22;20121;51.910;8.406;2023-06-01T08:20:04;13.00;99.90
33815;DHT22;20121;51.910;8.406;2023-06-01T08:22:38;13.10;99.90
33815;DHT22;20121;51.910;8.406;2023-06-01T08:25:06;13.20;99.90
33815;DHT22;20121;51.910;8.406;2023-06-01T08:27:31;13.30;99.90
33815;DHT22;20121;51.910;8.406;2023-06-01T08:29:57;13.40;99.90
33815;DHT22;20121;51.910;8.406;2023-06-01T08:32:23;13.40;99.90
33815;DHT22;20121;51.910;8.406;2023-06-01T08:34:49;13.50;99.90
33815;DHT22;20121;51.910;8.406;2023-06-01T08:37:15;13.50;99.90
33815;DHT22;20121;51.910;8.406;2023-06-01T08:39:40;13.50;99.90
33815;DHT22;20121;51.910;8.406;2023-06-01T08:42:23;13.50;99.90
33815;DHT22;20121;51.910;8.406;2023-06-01T08:44:53;13.50;99.90
33815;DHT22;20121;51.910;8.406;2023-06-01T08:47:19;13.50;99.90
33815;DHT22;20121;51.910;8.406;2023-06-01T08:49:46;13.40;99.90
33815;DHT22;20121;51.910;8.406;2023-06-01T08:52:19;13.40;99.90
33815;DHT22;20121;51.910;8.406;2023-06-01T08:54:46;13.40;99.90
33815;DHT22;20121;51.910;8.406;2023-06-01T08:57:11;13.50;99.90
33815;DHT22;20121;51.910;8.406;2023-06-01T08:59:37;13.50;99.90
33815;DHT22;20121;51.910;8.406;2023-06-01T09:02:04;13.60;99.90
33815;DHT22;20121;51.910;8.406;2023-06-01T09:04:32;13.60;99.90
33815;DHT22;20121;51.910;8.406;2023-06-01T09:06:59;13.70;99.90
33815;DHT22;20121;51.910;8.406;2023-06-01T09:09:25;13.70;99.90
33815;DHT22;20121;51.910;8.406;2023-06-01T09:12:16;13.70;99.90
33815;DHT22;20121;51.910;8.406;2023-06-01T09:14:42;13.80;99.90
33815;DHT22;20121;51.910;8.406;2023-06-01T09:17:30;13.90;99.90
33815;DHT22;20121;51.910;8.406;2023-06-01T09:19:56;13.90;99.90
33815;DHT22;20121;51.910;8.406;2023-06-01T09:22:22;13.90;99.90
33815;DHT22;20121;51.910;8.406;2023-06-01T09:25:00;14.00;99.90
33815;DHT22;20121;51.910;8.406;2023-06-01T09:27:26;14.10;99.90
33815;DHT22;20121;51.910;8.406;2023-06-01T09:29:56;14.10;99.90
33815;DHT22;20121;51.910;8.406;2023-06-01T09:32:22;14.10;99.90
33815;DHT22;20121;51.910;8.406;2023-06-01T09:34:47;14.10;99.90
33815;DHT22;20121;51.910;8.406;2023-06-01T09:37:13;14.20;99.90
33815;DHT22;20121;51.910;8.406;2023-06-01T09:39:39;14.30;99.90
33815;DHT22;20121;51.910;8.406;2023-06-01T09:42:06;14.30;99.90
33815;DHT22;20121;51.910;8.406;2023-06-01T09:44:36;14.30;99.90
33815;DHT22;20121;51.910;8.406;2023-06-01T09:47:10;14.30;99.90
33815;DHT22;20121;51.910;8.406;2023-06-01T09:49:42;14.10;99.90
33815;DHT22;20121;51.910;8.406;2023-06-01T09:52:10;14.20;99.90
33815;DHT22;20121;51.910;8.406;2023-06-01T09:54:42;14.30;99.90
33815;DHT22;20121;51.910;8.406;2023-06-01T09:57:09;14.30;99.90
33815;DHT22;20121;51.910;8.406;2023-06-01T10:02:04;14.50;99.90
33815;DHT22;20121;51.910;8.406;2023-06-01T10:04:31;14.60;99.90
33815;DHT22;20121;51.910;8.406;2023-06-01T10:06:58;14.70;99.90
33815;DHT22;20121;51.910;8.406;2023-06-01T10:09:25;14.80;99.90
33815;DHT22;20121;51.910;8.406;2023-06-01T10:11:55;14.90;99.90
33815;DHT22;20121;51.910;8.406;2023-06-01T10:14:22;15.00;99.90
33815;DHT22;20121;51.910;8.406;2023-06-01T10:16:53;15.10;99.90
33815;DHT22;20121;51.910;8.406;2023-06-01T10:19:20;15.10;99.90
33815;DHT22;20121;51.910;8.406;2023-06-01T10:21:46;15.10;99.90
33815;DHT22;20121;51.910;8.406;2023-06-01T10:24:16;15.10;99.90
33815;DHT22;20121;51.910;8.406;2023-06-01T10:29:11;15.20;99.90
33815;DHT22;20121;51.910;8.406;2023-06-01T10:31:39;15.20;99.90
33815;DHT22;20121;51.910;8.406;2023-06-01T10:34:07;15.20;99.90
33815;DHT22;20121;51.910;8.406;2023-06-01T10:39:26;15.30;99.90
33815;DHT22;20121;51.910;8.406;2023-06-01T10:41:54;15.30;99.90
33815;DHT22;20121;51.910;8.406;2023-06-01T10:57:37;15.10;99.90
33815;DHT22;20121;51.910;8.406;2023-06-01T11:00:25;15.10;99.90
33815;DHT22;20121;51.910;8.406;2023-06-01T11:05:36;15.20;99.90
33815;DHT22;20121;51.910;8.406;2023-06-01T11:10:58;15.20;99.90
33815;DHT22;20121;51.910;8.406;2023-06-01T11:13:32;15.20;99.90
33815;DHT22;20121;51.910;8.406;2023-06-01T11:18:44;15.40;99.90
33815;DHT22;20121;51.910;8.406;2023-06-01T11:21:18;15.40;99.90
33815;DHT22;20121;51.910;8.406;2023-06-01T11:23:47;15.40;99.90
33815;DHT22;20121;51.910;8.406;2023-06-01T11:26:18;15.50;99.90
33815;DHT22;20121;51.910;8.406;2023-06-01T11:28:47;15.60;99.90
33815;DHT22;20121;51.910;8.406;2023-06-01T11:31:15;15.70;99.90
33815;DHT22;20121;51.910;8.406;2023-06-01T11:33:51;15.80;99.90
33815;DHT22;20121;51.910;8.406;2023-06-01T11:36:24;15.80;99.90
33815;DHT22;20121;51.910;8.406;2023-06-01T11:38:51;15.90;99.90
33815;DHT22;20121;51.910;8.406;2023-06-01T11:41:18;15.90;99.90
33815;DHT22;20121;51.910;8.406;2023-06-01T11:43:44;16.20;99.90
33815;DHT22;20121;51.910;8.406;2023-06-01T11:46:09;16.00;99.90
33815;DHT22;20121;51.910;8.406;2023-06-01T11:48:35;16.10;99.90
33815;DHT22;20121;51.910;8.406;2023-06-01T11:51:02;16.10;99.90
33815;DHT22;20121;51.910;8.406;2023-06-01T11:53:30;15.90;99.90
33815;DHT22;20121;51.910;8.406;2023-06-01T11:55:59;16.00;99.90
33815;DHT22;20121;51.910;8.406;2023-06-01T11:58:26;16.10;99.90
33815;DHT22;20121;51.910;8.406;2023-06-01T12:00:52;16.10;99.90
33815;DHT22;20121;51.910;8.406;2023-06-01T12:03:18;16.10;99.90
33815;DHT22;20121;51.910;8.406;2023-06-01T12:05:45;16.10;99.90
33815;DHT22;20121;51.910;8.406;2023-06-01T12:08:16;16.10;99.90
33815;DHT22;20121;51.910;8.406;2023-06-01T12:10:44;16.10;99.90
33815;DHT22;20121;51.910;8.406;2023-06-01T12:13:12;16.10;99.90
33815;DHT22;20121;51.910;8.406;2023-06-01T12:15:38;16.10;99.90
33815;DHT22;20121;51.910;8.406;2023-06-01T12:18:04;16.10;99.90
33815;DHT22;20121;51.910;8.406;2023-06-01T12:20:38;16.10;99.90
33815;DHT22;20121;51.910;8.406;2023-06-01T12:28:19;16.10;99.90
33815;DHT22;20121;51.910;8.406;2023-06-01T12:30:46;16.10;99.90
33815;DHT22;20121;51.910;8.406;2023-06-01T12:35:55;16.20;99.90
33815;DHT22;20121;51.910;8.406;2023-06-01T12:38:21;16.30;99.90
33815;DHT22;20121;51.910;8.406;2023-06-01T12:41:08;16.30;99.90
33815;DHT22;20121;51.910;8.406;2023-06-01T12:43:35;16.20;99.90
33815;DHT22;20121;51.910;8.406;2023-06-01T12:46:02;16.30;99.90
33815;DHT22;20121;51.910;8.406;2023-06-01T12:48:36;16.30;99.90
33815;DHT22;20121;51.910;8.406;2023-06-01T12:51:03;16.40;99.90
33815;DHT22;20121;51.910;8.406;2023-06-01T12:53:30;16.30;99.90
33815;DHT22;20121;51.910;8.406;2023-06-01T12:55:55;16.40;99.90
33815;DHT22;20121;51.910;8.406;2023-06-01T12:58:21;16.40;99.90
33815;DHT22;20121;51.910;8.406;2023-06-01T13:00:47;16.40;99.90
33815;DHT22;20121;51.910;8.406;2023-06-01T13:03:14;16.50;99.90
33815;DHT22;20121;51.910;8.406;2023-06-01T13:05:43;16.30;99.90
33815;DHT22;20121;51.910;8.406;2023-06-01T13:08:12;16.30;99.90
33815;DHT22;20121;51.910;8.406;2023-06-01T13:10:38;16.40;99.90
33815;DHT22;20121;51.910;8.406;2023-06-01T13:13:04;16.30;99.90
33815;DHT22;20121;51.910;8.406;2023-06-01T13:15:30;16.30;99.90
33815;DHT22;20121;51.910;8.406;2023-06-01T13:17:55;16.40;99.90
33815;DHT22;20121;51.910;8.406;2023-06-01T13:20:21;16.40;99.90
33815;DHT22;20121;51.910;8.406;2023-06-01T13:22:47;16.50;99.90
33815;DHT22;20121;51.910;8.406;2023-06-01T13:25:13;16.50;99.90
33815;DHT22;20121;51.910;8.406;2023-06-01T13:27:39;16.50;99.90
33815;DHT22;20121;51.910;8.406;2023-06-01T13:30:06;16.50;99.90
33815;DHT22;20121;51.910;8.406;2023-06-01T13:32:32;16.50;99.90
33815;DHT22;20121;51.910;8.406;2023-06-01T13:34:58;16.40;99.90
33815;DHT22;20121;51.910;8.406;2023-06-01T13:37:23;16.50;99.90
33815;DHT22;20121;51.910;8.406;2023-06-01T13:39:49;16.60;99.90
33815;DHT22;20121;51.910;8.406;2023-06-01T13:42:16;16.70;99.90
33815;DHT22;20121;51.910;8.406;2023-06-01T13:44:41;16.80;99.90
33815;DHT22;20121;51.910;8.406;2023-06-01T13:47:13;16.90;99.90
33815;DHT22;20121;51.910;8.406;2023-06-01T13:49:43;17.00;99.90
33815;DHT22;20121;51.910;8.406;2023-06-01T13:52:09;17.00;99.90
33815;DHT22;20121;51.910;8.406;2023-06-01T13:54:35;17.10;99.90
33815;DHT22;20121;51.910;8.406;2023-06-01T13:57:01;17.20;99.90
33815;DHT22;20121;51.910;8.406;2023-06-01T13:59:31;17.30;99.90
33815;DHT22;20121;51.910;8.406;2023-06-01T14:01:57;17.40;99.90
33815;DHT22;20121;51.910;8.406;2023-06-01T14:04:23;17.50;99.90
33815;DHT22;20121;51.910;8.406;2023-06-01T14:06:48;17.60;99.90
33815;DHT22;20121;51.910;8.406;2023-06-01T14:09:18;17.70;99.90
33815;DHT22;20121;51.910;8.406;2023-06-01T14:11:44;17.70;99.90
33815;DHT22;20121;51.910;8.406;2023-06-01T14:14:09;17.80;99.90
33815;DHT22;20121;51.910;8.406;2023-06-01T14:16:35;17.80;99.90
33815;DHT22;20121;51.910;8.406;2023-06-01T14:19:01;17.90;99.90
33815;DHT22;20121;51.910;8.406;2023-06-01T14:21:26;17.80;99.90
33815;DHT22;20121;51.910;8.406;2023-06-01T14:23:54;17.80;99.90
33815;DHT22;20121;51.910;8.406;2023-06-01T14:26:20;17.70;99.90
33815;DHT22;20121;51.910;8.406;2023-06-01T14:28:46;18.10;99.90
33815;DHT22;20121;51.910;8.406;2023-06-01T14:31:12;17.70;99.90
33815;DHT22;20121;51.910;8.406;2023-06-01T14:33:37;17.80;99.90
33815;DHT22;20121;51.910;8.406;2023-06-01T14:36:03;17.80;99.90
33815;DHT22;20121;51.910;8.406;2023-06-01T14:38:30;17.80;99.90
33815;DHT22;20121;51.910;8.406;2023-06-01T14:40:56;17.80;99.90
33815;DHT22;20121;51.910;8.406;2023-06-01T14:43:21;17.80;99.90
33815;DHT22;20121;51.910;8.406;2023-06-01T14:45:47;17.80;99.90
33815;DHT22;20121;51.910;8.406;2023-06-01T14:48:13;17.80;99.90
33815;DHT22;20121;51.910;8.406;2023-06-01T14:50:38;17.70;99.90
33815;DHT22;20121;51.910;8.406;2023-06-01T14:53:04;17.70;99.90
33815;DHT22;20121;51.910;8.406;2023-06-01T14:55:30;17.70;99.90
33815;DHT22;20121;51.910;8.406;2023-06-01T14:57:56;17.70;99.90
33815;DHT22;20121;51.910;8.406;2023-06-01T15:00:22;17.60;99.90
33815;DHT22;20121;51.910;8.406;2023-06-01T15:02:48;17.90;99.90
33815;DHT22;20121;51.910;8.406;2023-06-01T15:05:13;17.50;99.90
33815;DHT22;20121;51.910;8.406;2023-06-01T15:07:39;17.50;99.90
33815;DHT22;20121;51.910;8.406;2023-06-01T15:10:05;17.40;99.90
33815;DHT22;20121;51.910;8.406;2023-06-01T15:12:31;17.40;99.90
33815;DHT22;20121;51.910;8.406;2023-06-01T15:14:57;17.30;99.90
33815;DHT22;20121;51.910;8.406;2023-06-01T15:17:22;17.30;99.90
33815;DHT22;20121;51.910;8.406;2023-06-01T15:19:48;17.30;99.90
33815;DHT22;20121;51.910;8.406;2023-06-01T15:22:14;17.30;99.90
33815;DHT22;20121;51.910;8.406;2023-06-01T15:24:40;17.20;99.90
33815;DHT22;20121;51.910;8.406;2023-06-01T15:27:07;17.30;99.90
33815;DHT22;20121;51.910;8.406;2023-06-01T15:29:33;17.30;99.90
33815;DHT22;20121;51.910;8.406;2023-06-01T15:31:59;17.30;99.90
33815;DHT22;20121;51.910;8.406;2023-06-01T15:34:24;17.20;99.90
33815;DHT22;20121;51.910;8.406;2023-06-01T15:36:50;17.00;99.90
33815;DHT22;20121;51.910;8.406;2023-06-01T15:39:16;16.90;99.90
33815;DHT22;20121;51.910;8.406;2023-06-01T15:41:42;16.90;99.90
33815;DHT22;20121;51.910;8.406;2023-06-01T15:44:07;16.90;99.90
33815;DHT22;20121;51.910;8.406;2023-06-01T15:46:33;17.00;99.90
33815;DHT22;20121;51.910;8.406;2023-06-01T15:48:59;17.00;99.90
33815;DHT22;20121;51.910;8.406;2023-06-01T15:51:26;17.00;99.90
33815;DHT22;20121;51.910;8.406;2023-06-01T15:53:52;17.00;99.90
33815;DHT22;20121;51.910;8.406;2023-06-01T15:56:18;17.00;99.90
33815;DHT22;20121;51.910;8.406;2023-06-01T15:58:43;17.00;99.90
33815;DHT22;20121;51.910;8.406;2023-06-01T16:01:09;17.10;99.90
33815;DHT22;20121;51.910;8.406;2023-06-01T16:03:35;16.70;99.90
33815;DHT22;20121;51.910;8.406;2023-06-01T16:06:01;17.00;99.90
33815;DHT22;20121;51.910;8.406;2023-06-01T16:08:26;17.00;99.90
33815;DHT22;20121;51.910;8.406;2023-06-01T16:10:52;17.10;99.90
33815;DHT22;20121;51.910;8.406;2023-06-01T16:13:18;17.10;99.90
33815;DHT22;20121;51.910;8.406;2023-06-01T16:15:43;17.10;99.90